Timeline UpdatesTrip UpdatesNews PostsPvt PostsTravel TipsAdmin PostsConv PostsFollowed PostsChat RequestsBlog PostsPNR Posts

Disclaimer
Search
 
 
Sat Aug 2, 2014 07:58:02 ISTHomeTrainsΣChainsAtlasPNRForumGalleryNewsFAQTripsMembersLoginFeedback
No Recent News for this Train
Other Trains in the News **new
Latest...
running with Inspection Car is of NR [0611/A]; since 2 weeks
Wed Jul 23, 2014 (11:12AM)
⇐ Return Journey: Train# 13483

13484/Farakka Express (via Faizabad)

Mar 05 2014 (7:09PM)
Change Departure Station:
Change Arrival Station:
Post a Train Travel TipPost a Train Travel Tip **new
Post a Comment/Question/Picture/VideoPost a Comment/Question/Picture/Video
Pantry/Catering
✓ Pantry Car Avbl
✓ Catering Avbl
RSA - Rake Sharing
13413/13414/04031/04032
Rake/Coach Composition
LOCO-SLR-UR-UR-S9-S8-S7-S6-S5-S4-S3-S2-S1-PC-B1-A1-UR-UR-UR-UR-UR-SLR-HPCV http://indiarailinfo.com/blog/post/1168926 by manu
Loco
DLI - LKO -> GZB[NR] WAP-5/7; LKO - MLDT ->...
Read more...
LKO[NR] WDM-3D/3A
News    PNR    Forum    Time-Table    Availability    Fare Chart    Map    Arr/Dep History    Trips    Gallery    ΣChains    X/O    Timeline    
Travel Time: 10h 28m    20 halts    Distance: 404 km    Avg Speed: 38 km/hr
Type: Mail/Express
Zone: ER/Eastern
Departs @ 20:52 (Avg 2h 20m late)
Platform# 2
 M W FS
Patna Junction/PNBE 
Arrives @ 07:20 +1 night (Avg 2h 55m late)
Platform# ???
S T T S
Malda Town/MLDT 

20 halts. 92 intermediate Stations between Patna Junction and Malda Town

Show ALL intermediate Stations  Show Old Time-Table

#CodeStation NameX/OArrivesAvgDepartsAvgHaltPFDay#KmSpeedElevZoneAddress
1DLIOld Delhi Junction (16)  -21:50+871-1058.833219mNRNear Chandni Chowk Metro Station, Delhi NCT
2GZBGhaziabad Junction (6)  22:26+1522:28+182m21-1038.866217mNRGhaziabad, Uttar Pradesh
3KRJKhurja Junction (4)  23:25+5023:28+523m--1-976.142199mNCRBulandshahr, Uttar Pradesh
4ALJNAligarh Junction (4)  00:30+3900:35+395m22-932.686192mNCRAligarh, Uttar Pradesh
5HRSHathras Junction (3)XO  00:56+4801:01+465m--2-902.459183mNCRMahamaya Nagar(05722-242803), Uttar Pradesh
6TDLTundla Junction (5)X  01:50+4501:58+458m32-854.550167mNCRDistt.Firozabad, Uttar Pradesh
7FZDFirozabad (4)X  02:18+4702:20+502m22-837.963164mNCRFirozabad, Uttar Pradesh
8SKBShikohabad Junction (4)X  02:39+5102:41+542m22-818.085166mNCRDistrict Firozabad, Uttar Pradesh
9ETWEtawah (5)X  03:20+1:0203:22+1:042m32-762.665154mNCRDistt. Etawah, Uttar Pradesh
10CNBKanpur Central (10)X  05:30+5205:45+4915m72-623.350128mNCRKANPUR-208 001, Uttar Pradesh
11ONUnnao Junction (5)X  06:06+1:0806:08+1:082m--2-605.945129mNRUnnao, Uttar Pradesh
12LKOLucknow Charbagh (9)X  07:20+5907:45+1:0525m--2-551.349123mNR226004, Uttar Pradesh
13BBKBarabanki Junction (4)  08:20+1:2108:22+1:222m--2-522.852122mNRPin-225001, Uttar Pradesh
14DYDDaryabad  09:06+1:2109:07+1:231m--2-484.769116mNRFaizabad Rd, Uttar Pradesh
15RDLRudauli (2)  09:27+1:2809:28+1:281m--2-461.672112mNRRudauli, Uttar Pradesh
16SLWSohwal  09:47+1:3309:48+1:341m--2-438.842107mNRFaizabad Rd, Uttar Pradesh
17FDFaizabad Junction (5)X  10:10+1:3510:15+1:365m--2-423.513104mNRFaizabad, Uttar Pradesh
18ACNDAcharya Narendra Dev Nagar  10:25+1:4010:26+1:401m--2-421.312104mNRFaizabad, Uttar Pradesh
19AYAyodhya Junction (3)X  10:48+1:2710:49+1:271m12-416.86698mNRAyodhya, Uttar Pradesh
20GGJGoshainGanj (3)  11:18+1:3111:19+1:321m--2-385.17498mNRGoshainganj, Uttar Pradesh
21ABPAkbarpur (2)  11:37+1:3411:39+1:362m--2-362.97292mNRAkbarpur, Uttar Pradesh
22MLPRMalipur (2)  11:55+1:4511:56+1:471m--2-343.86292mNRMalipur, Uttar Pradesh
23SHGShahganj Junction (4)  12:20+1:5112:25+1:535m--2-318.85090mNRShahganj, Uttar Pradesh
24JNUJaunpur Junction (5)X  13:05+1:5713:07+2:002m12-285.52383mNRJaunpur, Uttar Pradesh
25ZBDZafarabad Junction (4)X  13:24+1:5513:25+1:571m--2-279.03683mNRNational Highway 56, Uttar Pradesh
26JLLJalalGanj (2)  13:45+1:5413:46+1:541m--2-267.03287mNRJalalganj Railway Station, Uttar Pradesh
27BSBVaranasi Junction (9)X  15:00+1:4015:15+1:4515m82-227.81882mNRVaranasi 221002, Uttar Pradesh
28MGSMughal Sarai Junction (8)X  16:10+1:4216:25+1:4115m--2-211.47483mECRMughalsarai 232101, Uttar Pradesh
29ZNAZamania (2)  17:01+1:4817:03+1:492m--2-167.16777mECRGhazipur, Uttar Pradesh
30DLNDildarnagar Junction (2)  17:15+2:0317:17+2:032m--2-153.65272mECRDildarnagar, Uttar Pradesh
31BWHBhadaura (2)17:26+2:0117:28+2:012m--2-145.86169mECRGhazipur, Uttar Pradesh
32GMRGahmar (2)X  17:36+2:0217:38+2:032m--2-137.67968mECRDistt: Ghazipur, Uttar Pradesh
33CSAChausa (2)  17:45+2:0817:47+2:082m--2-128.46068mECRState Highway 14, Bihar
34BXRBuxar (3)X  17:58+2:0518:03+2:045m--2-117.48967mECRBuxar, Bihar
35DUREDumraon (3)  18:14+2:1318:16+2:132m--2-101.18070mECRDumraon, Bihar
36RPRRaghunathpur (4)  18:28+2:1718:30+2:182m--2-85.17469mECRRaghunathpur, Bihar
37BEABihiya (3)  18:42+2:2318:44+2:252m--2-70.47167mECRBehea, Bihar
38ARAAra Junction (3)X  19:02+2:2519:07+2:225m--2-48.98963mECRarrah( 06182-233411), Bihar
39BTABihta (2)X  19:22+2:3819:24+2:402m--2-26.73462mECRDistt: Patna, Bihar
40DNRDanapur (5)X  19:55+2:2820:05+2:3110m--2-9.41558mECRKhagaul, Bihar
41PNBE»Patna Junction (10)»X  20:42+2:1820:52+2:2010m220.02257mECRPatna 800001, Bihar
42RJPBRajendra Nagar Bihar (4)  20:59+2:3621:01+2:362m--22.63455mECRPatna 800001, Bihar
43PNCPatna Saheb (3)X  21:14+2:3421:16+2:392m--29.94159mECRPatna, Bihar
44FUTFatwa (6)  21:34+2:3221:36+2:352m--222.15553mECRPatna, Bihar
45BKPBakhtiyarpur Junction (5)XO  22:01+2:4222:05+2:424m--245.13851mECRPatna, Bihar
46BARHBarh (3)  22:34+2:3122:36+2:322m--263.47149mECRBarh, Bihar
47MKAMokama Junction (3)  22:58+2:4123:03+2:395m--289.37148mECRPatna, Bihar
48BRYABarhiya (3)  23:18+2:3423:20+2:342m--2107.02247mECRBarahiya, Bihar
49KIULKiul Junction (5)  00:05+2:3100:10+2:315m--3123.46653mECRDist. Lakhisarai, Bihar
50AHAAbhaipur (2)  00:31+2:4100:33+2:412m--3146.46052mERAbhaipur, Bihar
51JMPJamalpur Junction (4)  00:55+2:4501:05+2:4710m13168.36159mERJamalpur 06344-243101, Bihar
52BUPBariarpur (3)  01:16+2:5801:18+2:582m--3179.45442mERMunger, Bihar
53SGGSultanGanj (3)  01:38+2:5601:40+2:572m--3197.34742mERSultanganj, Bihar
54BGPBhagalpur Junction (6)  02:12+2:4402:22+2:4710m--3222.35749mERBhagalpur, Bihar
55SBOSabaur (3)  02:30+3:0602:32+3:092m--3229.86142mERSabour, Bihar
56CLGKahalgaon (2)  02:54+3:3302:56+3:382m13252.43744mERBhagalpur, Bihar
57PPTPirpainti (2)  03:29+3:3903:31+3:422m--3272.72653mERBhagalpur, Bihar
58SBGSahibganj Junction (3)X  04:25+3:2304:33+3:288m13296.28438mERSahibganj, Jharkhand
59TPHTinpahar Junction (3)X  05:00+3:3805:02+3:382m23334.03345mERBamangawan, Jharkhand
60BHWBarharwa Junction (3)  05:32+3:2705:36+3:294m23350.74036mERBarharwa, Jharkhand
61NFKNew Farakka Junction (3)X  06:03+3:3506:08+3:335m23368.72932mERDist - Murshidabad, West Bengal
62MLDT•Malda Town (5)•  07:20+2:55---3403.8-30mERDist - Malda, West Bengal
Scroll to Top
Scroll to Bottom